createdAt,value
2023-06-06T00:01:15.717Z,86.08
2023-06-06T00:03:47.544Z,86.07
2023-06-06T00:06:21.982Z,86.01
2023-06-06T00:08:54.089Z,86.10
2023-06-06T00:11:25.378Z,86.00
2023-06-06T00:13:57.899Z,86.04
2023-06-06T00:16:29.232Z,86.15
2023-06-06T00:19:00.710Z,86.03
2023-06-06T00:21:34.008Z,86.14
2023-06-06T00:24:05.219Z,86.18
2023-06-06T00:26:36.294Z,86.32
2023-06-06T00:29:07.667Z,86.33
2023-06-06T00:31:38.836Z,86.45
2023-06-06T00:34:09.777Z,86.49
2023-06-06T00:36:40.910Z,86.52
2023-06-06T00:39:12.140Z,86.57
2023-06-06T00:41:43.671Z,86.46
2023-06-06T00:44:14.745Z,86.58
2023-06-06T00:46:46.355Z,86.66
2023-06-06T00:49:19.510Z,86.75
2023-06-06T00:51:50.762Z,86.75
2023-06-06T00:54:23.083Z,86.75
2023-06-06T00:56:55.378Z,86.71
2023-06-06T00:59:27.512Z,86.73
2023-06-06T01:02:00.301Z,86.88
2023-06-06T01:04:31.906Z,86.84
2023-06-06T01:07:03.561Z,86.98
2023-06-06T01:09:35.558Z,87.05
2023-06-06T01:12:14.232Z,87.00
2023-06-06T01:15:14.014Z,87.02
2023-06-06T01:17:47.737Z,87.08
2023-06-06T01:20:22.868Z,87.15
2023-06-06T01:22:55.975Z,87.31
2023-06-06T01:25:28.125Z,87.46
2023-06-06T01:27:59.381Z,87.64
2023-06-06T01:30:31.634Z,87.71
2023-06-06T01:33:12.226Z,87.77
2023-06-06T01:35:54.178Z,87.75
2023-06-06T01:38:28.737Z,87.80
2023-06-06T01:41:03.789Z,88.03
2023-06-06T01:43:36.589Z,87.97
2023-06-06T01:46:10.228Z,87.97
2023-06-06T01:48:43.065Z,87.89
2023-06-06T01:51:14.898Z,88.00
2023-06-06T01:53:46.435Z,88.15
2023-06-06T01:56:17.501Z,88.08
2023-06-06T01:58:49.707Z,88.07
2023-06-06T02:01:22.106Z,88.04
2023-06-06T02:03:53.644Z,88.36
2023-06-06T02:06:25.122Z,88.49
2023-06-06T02:08:56.384Z,88.49
2023-06-06T02:11:28.228Z,88.57
2023-06-06T02:14:01.232Z,88.77
2023-06-06T02:16:33.262Z,88.83
2023-06-06T02:19:04.922Z,88.92
2023-06-06T02:21:36.600Z,89.05
2023-06-06T02:24:08.891Z,89.04
2023-06-06T02:26:42.995Z,89.27
2023-06-06T02:29:14.058Z,89.40
2023-06-06T02:31:45.225Z,89.38
2023-06-06T02:34:16.299Z,89.53
2023-06-06T02:36:50.550Z,89.63
2023-06-06T02:39:21.553Z,89.66
2023-06-06T02:41:53.514Z,89.55
2023-06-06T02:44:25.393Z,89.50
2023-06-06T02:46:56.568Z,89.53
2023-06-06T02:49:28.635Z,89.52
2023-06-06T02:51:59.724Z,89.45
2023-06-06T02:54:31.069Z,89.53
2023-06-06T02:57:03.359Z,89.45
2023-06-06T02:59:34.416Z,89.57
2023-06-06T03:02:05.802Z,89.64
2023-06-06T03:04:37.192Z,89.61
2023-06-06T03:07:11.356Z,89.58
2023-06-06T03:09:42.492Z,89.95
2023-06-06T03:12:13.657Z,89.88
2023-06-06T03:14:55.669Z,89.84
2023-06-06T03:17:28.414Z,90.02
2023-06-06T03:19:59.586Z,89.99
2023-06-06T03:22:31.204Z,89.85
2023-06-06T03:25:02.834Z,89.78
2023-06-06T03:27:34.042Z,89.67
2023-06-06T03:30:08.099Z,89.88
2023-06-06T03:32:39.363Z,89.76
2023-06-06T03:35:10.902Z,89.77
2023-06-06T03:37:42.480Z,89.84
2023-06-06T03:40:14.222Z,89.81
2023-06-06T03:42:45.277Z,89.93
2023-06-06T03:45:16.309Z,89.79
2023-06-06T03:47:47.536Z,89.86
2023-06-06T03:50:19.220Z,89.96
2023-06-06T03:52:50.404Z,90.30
2023-06-06T03:55:21.572Z,90.28
2023-06-06T03:57:53.856Z,90.37
2023-06-06T04:00:25.079Z,90.57
2023-06-06T04:02:56.059Z,90.52
2023-06-06T04:05:27.423Z,90.75
2023-06-06T04:07:58.502Z,91.04
2023-06-06T04:10:29.631Z,91.04
2023-06-06T04:13:02.209Z,90.92
2023-06-06T04:15:33.201Z,90.84
2023-06-06T04:18:04.255Z,91.02
2023-06-06T04:20:35.407Z,91.10
2023-06-06T04:23:06.750Z,91.09
2023-06-06T04:25:37.890Z,91.07
2023-06-06T04:28:09.718Z,91.03
2023-06-06T04:30:42.047Z,91.00
2023-06-06T04:33:13.290Z,91.25
2023-06-06T04:35:44.317Z,91.12
2023-06-06T04:38:20.239Z,91.19
2023-06-06T04:41:05.088Z,91.37
2023-06-06T04:43:43.821Z,91.63
2023-06-06T04:46:14.883Z,91.35
2023-06-06T04:48:46.154Z,91.42
2023-06-06T04:51:17.202Z,91.39
2023-06-06T04:53:48.355Z,91.25
2023-06-06T04:56:20.043Z,91.30
2023-06-06T04:58:53.804Z,91.04
2023-06-06T05:01:25.161Z,91.03
2023-06-06T05:03:56.323Z,90.97
2023-06-06T05:06:28.537Z,90.91
2023-06-06T05:09:01.145Z,90.83
2023-06-06T05:11:32.545Z,90.85
2023-06-06T05:14:04.084Z,90.70
2023-06-06T05:16:35.111Z,90.60
2023-06-06T05:19:06.287Z,90.53
2023-06-06T05:21:37.369Z,90.33
2023-06-06T05:24:09.198Z,90.21
2023-06-06T05:26:40.335Z,90.23
2023-06-06T05:29:11.604Z,90.07
2023-06-06T05:31:42.737Z,89.91
2023-06-06T05:34:13.816Z,89.70
2023-06-06T05:36:45.057Z,89.53
2023-06-06T05:39:19.104Z,89.38
2023-06-06T05:41:55.725Z,89.28
2023-06-06T05:44:26.992Z,89.17
2023-06-06T05:46:58.055Z,89.24
2023-06-06T05:49:30.257Z,89.34
2023-06-06T05:52:02.525Z,89.17
2023-06-06T05:54:48.921Z,89.33
2023-06-06T05:57:24.802Z,89.20
2023-06-06T05:59:56.622Z,89.00
2023-06-06T06:02:27.976Z,88.93
2023-06-06T06:04:59.326Z,88.97
2023-06-06T06:07:30.481Z,89.22
2023-06-06T06:10:01.353Z,89.07
2023-06-06T06:12:33.861Z,89.04
2023-06-06T06:15:05.116Z,89.15
2023-06-06T06:17:36.300Z,89.02
2023-06-06T06:20:11.473Z,89.02
2023-06-06T06:22:42.477Z,89.05
2023-06-06T06:25:15.108Z,89.05
2023-06-06T06:27:47.134Z,88.99
2023-06-06T06:30:19.777Z,89.30
2023-06-06T06:32:51.028Z,89.29
2023-06-06T06:35:22.122Z,89.25
2023-06-06T06:37:53.250Z,89.38
2023-06-06T06:40:24.306Z,89.54
2023-06-06T06:42:55.402Z,89.49
2023-06-06T06:45:28.145Z,89.47
2023-06-06T06:48:00.370Z,89.52
2023-06-06T06:50:31.810Z,89.45
2023-06-06T06:53:04.495Z,89.59
2023-06-06T06:55:38.914Z,89.77
2023-06-06T06:58:09.902Z,89.66
2023-06-06T07:00:41.006Z,89.84
2023-06-06T07:03:11.988Z,89.81
2023-06-06T07:05:44.100Z,89.91
2023-06-06T07:08:15.346Z,89.84
2023-06-06T07:10:46.462Z,89.66
2023-06-06T07:13:19.557Z,89.70
2023-06-06T07:15:51.210Z,89.60
2023-06-06T07:18:22.164Z,89.48
2023-06-06T07:20:53.743Z,89.53
2023-06-06T07:23:24.866Z,89.66
2023-06-06T07:25:57.000Z,89.67
2023-06-06T07:28:28.081Z,89.75
2023-06-06T07:30:59.612Z,89.87
2023-06-06T07:33:30.680Z,89.60
2023-06-06T07:36:02.191Z,89.54
2023-06-06T07:38:36.342Z,89.45
2023-06-06T07:41:07.734Z,89.55
2023-06-06T07:43:38.734Z,89.57
2023-06-06T07:46:09.900Z,89.65
2023-06-06T07:48:40.976Z,89.80
2023-06-06T07:51:12.193Z,89.77
2023-06-06T07:53:45.006Z,89.98
2023-06-06T07:56:17.794Z,89.99
2023-06-06T07:58:53.481Z,89.83
2023-06-06T08:01:24.737Z,89.86
2023-06-06T08:03:57.086Z,90.02
2023-06-06T08:06:29.615Z,89.81
2023-06-06T08:09:00.609Z,89.37
2023-06-06T08:11:31.898Z,89.32
2023-06-06T08:14:02.746Z,89.22
2023-06-06T08:16:33.784Z,89.13
2023-06-06T08:19:04.796Z,89.35
2023-06-06T08:21:37.934Z,89.32
2023-06-06T08:24:09.359Z,89.04
2023-06-06T08:26:40.618Z,88.99
2023-06-06T08:29:11.539Z,88.99
2023-06-06T08:31:42.694Z,89.40
2023-06-06T08:34:13.703Z,89.36
2023-06-06T08:36:45.607Z,89.45
2023-06-06T08:39:16.934Z,89.46
2023-06-06T08:41:53.148Z,89.62
2023-06-06T08:44:25.702Z,89.96
2023-06-06T08:46:59.235Z,90.02
2023-06-06T08:49:31.031Z,90.12
2023-06-06T08:52:03.494Z,90.17
2023-06-06T08:54:36.118Z,90.17
2023-06-06T08:57:09.876Z,90.14
2023-06-06T08:59:42.484Z,90.46
2023-06-06T09:02:13.765Z,90.23
2023-06-06T09:04:46.060Z,90.31
2023-06-06T09:07:17.800Z,90.29
2023-06-06T09:09:50.598Z,90.33
2023-06-06T09:12:21.869Z,90.05
2023-06-06T09:14:52.855Z,89.85
2023-06-06T09:17:24.080Z,89.55
2023-06-06T09:19:55.229Z,89.34
2023-06-06T09:22:27.479Z,89.44
2023-06-06T09:25:00.257Z,89.00
2023-06-06T09:27:32.092Z,88.56
2023-06-06T09:30:03.236Z,88.15
2023-06-06T09:32:35.043Z,88.45
2023-06-06T09:35:07.467Z,88.83
2023-06-06T09:37:42.424Z,88.99
2023-06-06T09:40:18.728Z,88.50
2023-06-06T09:42:51.694Z,88.70
2023-06-06T09:45:24.098Z,89.04
2023-06-06T09:47:55.282Z,89.16
2023-06-06T09:50:27.978Z,88.87
2023-06-06T09:52:59.281Z,88.88
2023-06-06T09:55:30.449Z,88.85
2023-06-06T09:58:02.626Z,88.80
2023-06-06T10:00:39.016Z,88.74
2023-06-06T10:03:11.866Z,87.88
2023-06-06T10:05:43.232Z,88.29
2023-06-06T10:08:15.439Z,87.95
2023-06-06T10:10:49.772Z,88.29
2023-06-06T10:13:24.071Z,87.98
2023-06-06T10:15:56.912Z,87.76
2023-06-06T10:18:30.345Z,87.67
2023-06-06T10:21:04.079Z,88.11
2023-06-06T10:23:35.176Z,88.24
2023-06-06T10:26:11.243Z,87.98
2023-06-06T10:28:50.553Z,87.45
2023-06-06T10:31:31.322Z,87.65
2023-06-06T10:34:05.550Z,87.66
2023-06-06T10:36:45.927Z,87.85
2023-06-06T10:39:21.842Z,88.74
2023-06-06T10:41:55.587Z,87.92
2023-06-06T10:44:29.373Z,87.75
2023-06-06T10:47:29.691Z,86.73
2023-06-06T10:50:23.510Z,86.54
2023-06-06T10:52:57.260Z,86.87
2023-06-06T10:55:47.481Z,86.66
2023-06-06T10:58:28.802Z,86.39
2023-06-06T11:01:07.707Z,85.66
2023-06-06T11:03:41.254Z,84.79
2023-06-06T11:06:15.684Z,84.85
2023-06-06T11:08:55.009Z,85.49
2023-06-06T11:11:31.860Z,85.32
2023-06-06T11:14:06.434Z,85.35
2023-06-06T11:17:12.912Z,85.69
2023-06-06T11:19:44.635Z,85.50
2023-06-06T11:22:25.815Z,85.32
2023-06-06T11:24:59.061Z,84.40
2023-06-06T11:27:30.385Z,82.89
2023-06-06T11:30:01.855Z,83.06
2023-06-06T11:32:36.370Z,82.90
2023-06-06T11:35:11.270Z,83.24
2023-06-06T11:37:42.555Z,83.41
2023-06-06T11:40:15.985Z,83.30
2023-06-06T11:42:47.700Z,83.34
2023-06-06T11:45:19.713Z,84.00
2023-06-06T11:47:56.124Z,83.10
2023-06-06T11:50:34.526Z,83.07
2023-06-06T11:53:06.926Z,81.71
2023-06-06T11:55:41.354Z,81.78
2023-06-06T11:58:12.448Z,80.03
2023-06-06T12:00:44.652Z,80.16
2023-06-06T12:03:19.566Z,79.39
2023-06-06T12:06:01.747Z,77.51
2023-06-06T12:08:35.912Z,77.26
2023-06-06T12:11:27.995Z,78.23
2023-06-06T12:14:00.124Z,76.66
2023-06-06T12:16:31.784Z,78.12
2023-06-06T12:19:02.938Z,78.67
2023-06-06T12:21:47.371Z,77.80
2023-06-06T12:24:22.990Z,78.35
2023-06-06T12:26:57.532Z,78.18
2023-06-06T12:29:31.398Z,77.56
2023-06-06T12:32:19.557Z,76.98
2023-06-06T12:34:59.957Z,76.92
2023-06-06T12:37:41.915Z,76.06
2023-06-06T12:40:20.324Z,75.91
2023-06-06T12:42:56.068Z,76.37
2023-06-06T12:45:28.717Z,76.10
2023-06-06T12:48:01.112Z,75.62
2023-06-06T12:50:32.367Z,74.15
2023-06-06T12:53:04.572Z,75.82
2023-06-06T12:55:35.750Z,76.67
2023-06-06T12:58:07.134Z,76.77
2023-06-06T13:00:39.351Z,76.95
2023-06-06T13:03:22.241Z,75.29
2023-06-06T13:05:54.767Z,74.91
2023-06-06T13:08:37.137Z,73.97
2023-06-06T13:11:09.878Z,73.89
2023-06-06T13:13:41.566Z,73.95
2023-06-06T13:16:12.804Z,73.77
2023-06-06T13:18:43.942Z,73.69
2023-06-06T13:21:15.314Z,74.29
2023-06-06T13:23:46.964Z,74.43
2023-06-06T13:26:18.130Z,75.28
2023-06-06T13:28:49.721Z,74.36
2023-06-06T13:31:20.927Z,74.49
2023-06-06T13:33:52.279Z,75.50
2023-06-06T13:36:23.452Z,74.89
2023-06-06T13:38:54.662Z,74.98
2023-06-06T13:41:27.110Z,75.27
2023-06-06T13:43:58.193Z,75.45
2023-06-06T13:46:29.421Z,75.84
2023-06-06T13:49:03.425Z,75.81
2023-06-06T13:51:35.378Z,76.02
2023-06-06T13:54:06.809Z,75.96
2023-06-06T13:56:37.849Z,76.09
2023-06-06T13:59:09.243Z,76.33
2023-06-06T14:01:43.097Z,76.38
2023-06-06T14:04:14.711Z,76.75
2023-06-06T14:06:46.499Z,76.47
2023-06-06T14:09:20.134Z,76.16
2023-06-06T14:11:52.085Z,76.01
2023-06-06T14:14:24.429Z,75.87
2023-06-06T14:16:55.965Z,75.52
2023-06-06T14:19:36.536Z,70.52
2023-06-06T14:22:22.019Z,71.02
2023-06-06T14:24:55.550Z,70.75
2023-06-06T14:27:29.784Z,70.81
2023-06-06T14:30:01.403Z,70.67
2023-06-06T14:32:34.137Z,70.60
2023-06-06T14:35:07.651Z,71.21
2023-06-06T14:37:39.258Z,71.09
2023-06-06T14:40:13.262Z,72.04
2023-06-06T14:42:45.639Z,71.85
2023-06-06T14:45:17.046Z,72.25
2023-06-06T14:47:48.190Z,73.64
2023-06-06T14:50:19.609Z,74.15
2023-06-06T14:52:50.803Z,74.97
2023-06-06T14:55:22.116Z,75.07
2023-06-06T14:57:53.803Z,75.37
2023-06-06T15:00:25.135Z,75.57
2023-06-06T15:02:56.352Z,76.02
2023-06-06T15:05:30.958Z,76.13
2023-06-06T15:08:02.490Z,76.80
2023-06-06T15:10:33.863Z,77.00
2023-06-06T15:13:04.975Z,77.29
2023-06-06T15:15:36.221Z,77.39
2023-06-06T15:18:07.783Z,77.39
2023-06-06T15:20:38.890Z,77.10
2023-06-06T15:23:10.061Z,77.04
2023-06-06T15:25:41.269Z,77.19
2023-06-06T15:28:12.477Z,77.24
2023-06-06T15:30:44.363Z,77.02
2023-06-06T15:33:15.709Z,77.13
2023-06-06T15:35:46.963Z,77.32
2023-06-06T15:38:18.904Z,77.40
2023-06-06T15:40:51.455Z,77.31
2023-06-06T15:43:23.008Z,77.32
2023-06-06T15:45:54.230Z,77.14
2023-06-06T15:48:25.793Z,77.05
2023-06-06T15:50:57.284Z,77.20
2023-06-06T15:53:28.478Z,76.70
2023-06-06T15:55:59.555Z,76.53
2023-06-06T15:58:30.690Z,76.46
2023-06-06T16:01:02.373Z,76.28
2023-06-06T16:03:33.944Z,76.00
2023-06-06T16:06:05.118Z,75.79
2023-06-06T16:08:36.718Z,75.77
2023-06-06T16:11:07.645Z,76.17
2023-06-06T16:13:38.857Z,75.89
2023-06-06T16:16:12.288Z,75.88
2023-06-06T16:18:45.020Z,76.09
2023-06-06T16:21:16.139Z,76.06
2023-06-06T16:23:47.708Z,76.17
2023-06-06T16:26:19.040Z,76.22
2023-06-06T16:28:50.613Z,76.35
2023-06-06T16:31:21.787Z,76.73
2023-06-06T16:33:52.940Z,77.22
2023-06-06T16:36:24.339Z,77.71
2023-06-06T16:38:55.390Z,77.78
2023-06-06T16:41:27.083Z,78.08
2023-06-06T16:43:58.788Z,78.30
2023-06-06T16:46:30.712Z,78.32
2023-06-06T16:49:01.753Z,78.59
2023-06-06T16:51:33.270Z,79.02
2023-06-06T16:54:05.856Z,79.27
2023-06-06T16:56:38.266Z,79.66
2023-06-06T16:59:10.677Z,79.92
2023-06-06T17:01:41.944Z,79.87
2023-06-06T17:04:15.526Z,79.84
2023-06-06T17:06:47.508Z,79.88
2023-06-06T17:09:21.713Z,79.87
2023-06-06T17:11:52.907Z,79.90
2023-06-06T17:14:23.878Z,80.10
2023-06-06T17:16:55.005Z,80.40
2023-06-06T17:19:26.548Z,80.47
2023-06-06T17:21:57.760Z,80.62
2023-06-06T17:24:28.958Z,80.84
2023-06-06T17:27:00.144Z,80.99
2023-06-06T17:29:32.333Z,81.28
2023-06-06T17:32:03.532Z,81.47
2023-06-06T17:34:35.194Z,81.63
2023-06-06T17:37:06.642Z,81.94
2023-06-06T17:39:37.834Z,82.03
2023-06-06T17:42:10.008Z,82.25
2023-06-06T17:44:41.313Z,82.24
2023-06-06T17:47:12.622Z,82.31
2023-06-06T17:49:43.678Z,82.46
2023-06-06T17:52:16.179Z,82.52
2023-06-06T17:54:47.391Z,82.63
2023-06-06T17:57:18.684Z,82.88
2023-06-06T17:59:50.034Z,82.84
2023-06-06T18:02:21.469Z,82.94
2023-06-06T18:04:52.946Z,82.95
2023-06-06T18:07:24.081Z,82.93
2023-06-06T18:09:55.446Z,83.09
2023-06-06T18:12:27.192Z,83.07
2023-06-06T18:14:59.006Z,83.06
2023-06-06T18:17:30.597Z,83.37
2023-06-06T18:20:02.064Z,83.27
2023-06-06T18:22:34.845Z,83.30
2023-06-06T18:25:06.967Z,83.49
2023-06-06T18:27:38.741Z,83.40
2023-06-06T18:30:14.359Z,83.51
2023-06-06T18:32:46.127Z,83.62
2023-06-06T18:35:17.573Z,83.78
2023-06-06T18:37:49.189Z,83.75
2023-06-06T18:40:22.928Z,83.63
2023-06-06T18:42:55.074Z,83.61
2023-06-06T18:45:26.776Z,83.79
2023-06-06T18:48:03.153Z,84.13
2023-06-06T18:50:34.564Z,84.13
2023-06-06T18:53:06.185Z,84.24
2023-06-06T18:55:38.084Z,84.23
2023-06-06T18:58:09.640Z,84.50
2023-06-06T19:00:41.578Z,84.53
2023-06-06T19:03:13.385Z,84.73
2023-06-06T19:05:45.189Z,84.66
2023-06-06T19:08:17.630Z,84.81
2023-06-06T19:10:48.898Z,84.92
2023-06-06T19:13:20.456Z,85.07
2023-06-06T19:15:54.330Z,85.09
2023-06-06T19:21:01.724Z,85.57
2023-06-06T19:23:33.114Z,85.67
2023-06-06T19:26:04.291Z,85.65
2023-06-06T19:28:36.547Z,85.74
2023-06-06T19:31:08.030Z,85.79
2023-06-06T19:33:39.390Z,85.83
2023-06-06T19:36:11.247Z,85.92
2023-06-06T19:38:42.600Z,85.77
2023-06-06T19:41:13.785Z,85.99
2023-06-06T19:43:47.768Z,85.79
2023-06-06T19:46:20.501Z,86.15
2023-06-06T19:48:52.542Z,86.29
2023-06-06T19:51:24.155Z,86.20
2023-06-06T19:53:55.304Z,86.06
2023-06-06T19:56:27.765Z,85.91
2023-06-06T19:58:58.964Z,85.97
2023-06-06T20:01:30.628Z,86.13
2023-06-06T20:04:02.035Z,86.27
2023-06-06T20:06:36.437Z,86.33
2023-06-06T20:09:07.914Z,86.43
2023-06-06T20:11:40.744Z,86.49
2023-06-06T20:14:12.574Z,86.41
2023-06-06T20:16:43.917Z,86.44
2023-06-06T20:19:15.160Z,86.41
2023-06-06T20:21:46.568Z,86.34
2023-06-06T20:24:18.230Z,86.41
2023-06-06T20:26:49.886Z,86.57
2023-06-06T20:29:21.887Z,86.57
2023-06-06T20:31:52.978Z,86.43
2023-06-06T20:34:24.153Z,86.43
2023-06-06T20:36:55.466Z,86.68
2023-06-06T20:39:35.582Z,86.69
2023-06-06T20:42:08.036Z,86.87
2023-06-06T20:44:39.223Z,86.97
2023-06-06T20:47:10.870Z,86.95
2023-06-06T20:49:42.222Z,86.89
2023-06-06T20:52:14.310Z,87.09
2023-06-06T20:54:45.753Z,87.26
2023-06-06T20:57:16.754Z,87.09
2023-06-06T20:59:48.002Z,87.13
2023-06-06T21:02:19.184Z,87.15
2023-06-06T21:04:50.839Z,87.00
2023-06-06T21:07:22.054Z,86.96
2023-06-06T21:09:53.086Z,86.83
2023-06-06T21:12:24.558Z,86.90
2023-06-06T21:14:55.477Z,87.15
2023-06-06T21:17:26.920Z,87.04
2023-06-06T21:20:00.513Z,87.01
2023-06-06T21:22:32.126Z,87.03
2023-06-06T21:25:04.165Z,86.92
2023-06-06T21:27:35.618Z,87.17
2023-06-06T21:30:08.783Z,87.37
2023-06-06T21:32:40.613Z,87.44
2023-06-06T21:35:12.383Z,87.41
2023-06-06T21:37:43.670Z,87.40
2023-06-06T21:40:16.130Z,87.48
2023-06-06T21:42:48.109Z,87.49
2023-06-06T21:45:19.219Z,87.45
2023-06-06T21:47:50.342Z,87.56
2023-06-06T21:50:21.468Z,87.45
2023-06-06T21:52:52.632Z,87.51
2023-06-06T21:55:24.254Z,87.47
2023-06-06T21:57:55.148Z,87.53
2023-06-06T22:00:28.055Z,87.26
2023-06-06T22:02:59.378Z,87.25
2023-06-06T22:05:30.763Z,87.15
2023-06-06T22:08:01.693Z,87.30
2023-06-06T22:10:33.039Z,87.42
2023-06-06T22:13:04.294Z,87.57
2023-06-06T22:15:35.971Z,87.33
2023-06-06T22:18:07.444Z,87.41
2023-06-06T22:20:38.743Z,87.35
2023-06-06T22:23:09.721Z,87.29
2023-06-06T22:25:41.151Z,87.22
2023-06-06T22:28:13.262Z,87.37
2023-06-06T22:30:44.371Z,87.27
2023-06-06T22:33:15.407Z,87.26
2023-06-06T22:35:46.505Z,87.23
2023-06-06T22:38:17.670Z,87.12
2023-06-06T22:40:48.725Z,87.23
2023-06-06T22:43:19.770Z,87.12
2023-06-06T22:45:51.453Z,87.07
2023-06-06T22:48:22.686Z,87.10
2023-06-06T22:50:53.937Z,87.05
2023-06-06T22:53:25.476Z,87.07
2023-06-06T22:55:56.576Z,87.06
2023-06-06T22:58:27.778Z,87.11
2023-06-06T23:00:58.810Z,87.18
2023-06-06T23:03:30.158Z,87.33
2023-06-06T23:06:01.446Z,87.43
2023-06-06T23:08:33.555Z,87.67
2023-06-06T23:11:04.531Z,87.71
2023-06-06T23:13:36.120Z,87.98
2023-06-06T23:16:08.998Z,87.96
2023-06-06T23:18:40.162Z,87.88
2023-06-06T23:21:11.194Z,87.88
2023-06-06T23:23:42.209Z,87.99
2023-06-06T23:26:13.435Z,88.03
2023-06-06T23:28:44.683Z,88.12
2023-06-06T23:31:15.934Z,88.01
2023-06-06T23:33:47.315Z,88.00
2023-06-06T23:36:18.382Z,87.94
2023-06-06T23:38:49.420Z,87.82
2023-06-06T23:41:20.411Z,87.85
2023-06-06T23:43:51.476Z,87.94
2023-06-06T23:46:22.533Z,87.80
2023-06-06T23:48:53.669Z,87.77
2023-06-06T23:51:24.650Z,87.74
2023-06-06T23:53:55.887Z,87.53
2023-06-06T23:56:26.934Z,87.67
2023-06-06T23:58:57.916Z,87.53
